createdAt,value
2023-03-23T15:58:15.949Z,88.06
2023-03-23T16:00:47.146Z,88.70
2023-03-23T16:03:20.901Z,89.71
2023-03-23T16:05:48.713Z,90.19
2023-03-23T16:08:16.642Z,90.90
2023-03-23T16:10:44.882Z,90.36
2023-03-23T16:13:12.948Z,89.94
2023-03-23T16:15:40.712Z,89.68
2023-03-23T16:18:17.007Z,91.67
2023-03-23T16:20:44.882Z,91.85
2023-03-23T16:23:12.653Z,91.95
2023-03-23T16:25:40.599Z,92.04
2023-03-23T16:28:12.335Z,93.37
2023-03-23T16:30:43.611Z,93.86
2023-03-23T16:33:12.749Z,94.72
2023-03-23T16:35:40.957Z,95.84
2023-03-23T16:38:09.397Z,96.44
2023-03-23T16:40:37.576Z,97.15
2023-03-23T16:43:08.359Z,95.50
2023-03-23T16:45:43.255Z,95.70
2023-03-23T16:48:14.779Z,96.37
2023-03-23T16:50:43.603Z,97.05
2023-03-23T16:53:11.774Z,97.25
2023-03-23T16:55:40.600Z,97.68
2023-03-23T16:58:17.011Z,98.52
2023-03-23T17:00:48.015Z,97.72
2023-03-23T17:03:17.362Z,98.32
2023-03-23T17:05:46.235Z,98.15
2023-03-23T17:08:14.285Z,98.31
2023-03-23T17:10:43.689Z,99.14
2023-03-23T17:13:11.626Z,99.33
2023-03-23T17:15:39.926Z,99.04
2023-03-23T17:18:08.135Z,99.94
2023-03-23T17:20:37.343Z,100.00
2023-03-23T17:23:05.883Z,100.00
2023-03-23T17:25:33.738Z,100.00
2023-03-23T17:28:05.719Z,99.61
2023-03-23T17:30:34.179Z,99.99
2023-03-23T17:33:01.946Z,99.74
2023-03-23T17:35:29.807Z,100.00
2023-03-23T17:37:59.081Z,100.00
2023-03-23T17:40:27.292Z,100.00
2023-03-23T17:42:55.885Z,100.00
2023-03-23T17:45:24.357Z,100.00
2023-03-23T17:47:52.867Z,100.00
2023-03-23T17:50:21.040Z,100.00
2023-03-23T17:52:49.942Z,100.00
2023-03-23T17:55:19.193Z,100.00
2023-03-23T17:57:46.933Z,100.00
2023-03-23T18:00:15.788Z,97.35
2023-03-23T18:02:43.668Z,95.98
2023-03-23T18:05:11.848Z,95.13
2023-03-23T18:07:39.655Z,94.21
2023-03-23T18:10:11.881Z,94.52
2023-03-23T18:12:42.944Z,94.72
2023-03-23T18:15:11.579Z,93.85
2023-03-23T18:17:39.556Z,95.10
2023-03-23T18:20:08.940Z,95.16
2023-03-23T18:22:36.810Z,95.92
2023-03-23T18:25:05.215Z,95.55
2023-03-23T18:27:33.166Z,96.05
2023-03-23T18:30:02.713Z,96.56
2023-03-23T18:32:30.480Z,94.25
2023-03-23T18:34:58.382Z,94.57
2023-03-23T18:37:26.667Z,93.53
2023-03-23T18:39:54.571Z,93.61
2023-03-23T18:42:22.480Z,94.41
2023-03-23T18:44:50.187Z,93.09
2023-03-23T18:47:19.259Z,93.52
2023-03-23T18:49:51.084Z,93.20
2023-03-23T18:52:19.107Z,93.10
2023-03-23T18:54:46.899Z,93.96
2023-03-23T18:57:15.191Z,94.87
2023-03-23T18:59:43.014Z,94.85
2023-03-23T19:02:11.779Z,94.14
2023-03-23T19:04:41.076Z,94.93
2023-03-23T19:07:08.773Z,95.33
2023-03-23T19:09:36.886Z,95.82
2023-03-23T19:12:04.726Z,95.92
2023-03-23T19:14:32.549Z,93.62
2023-03-23T19:17:00.383Z,93.50
2023-03-23T19:19:28.352Z,92.72
2023-03-23T19:21:57.356Z,93.76
2023-03-23T19:24:26.277Z,92.23
2023-03-23T19:26:54.053Z,92.33
2023-03-23T19:31:52.588Z,91.85
2023-03-23T19:34:21.740Z,90.81
2023-03-23T19:36:55.044Z,89.47
2023-03-23T19:39:28.560Z,89.18
2023-03-23T19:41:56.767Z,89.19
2023-03-23T19:44:25.466Z,89.28
2023-03-23T19:46:54.518Z,89.20
2023-03-23T19:49:22.503Z,88.90
2023-03-23T19:51:50.426Z,88.76
2023-03-23T19:54:18.110Z,89.17
2023-03-23T19:56:47.863Z,89.07
2023-03-23T19:59:16.639Z,89.45
2023-03-23T20:01:45.352Z,89.25
2023-03-23T20:04:13.380Z,88.54
2023-03-23T20:06:41.292Z,88.21
2023-03-23T20:09:09.358Z,87.40
2023-03-23T20:11:37.409Z,85.86
2023-03-23T20:14:07.025Z,86.02
2023-03-23T20:16:34.874Z,85.83
2023-03-23T20:19:04.914Z,84.68
2023-03-23T20:21:33.704Z,85.33
2023-03-23T20:24:01.621Z,83.88
2023-03-23T20:26:32.179Z,85.10
2023-03-23T20:29:00.602Z,83.77
2023-03-23T20:31:33.132Z,84.73
2023-03-23T20:34:08.428Z,83.98
2023-03-23T20:36:40.505Z,84.45
2023-03-23T20:39:12.122Z,85.26
2023-03-23T20:41:40.573Z,85.32
2023-03-23T20:44:13.936Z,86.31
2023-03-23T20:46:43.488Z,87.40
2023-03-23T20:49:11.433Z,88.20
2023-03-23T20:51:42.953Z,87.90
2023-03-23T20:54:10.952Z,88.59
2023-03-23T20:56:40.546Z,89.14
2023-03-23T20:59:08.413Z,89.58
2023-03-23T21:01:37.034Z,89.87
2023-03-23T21:04:08.154Z,89.93
2023-03-23T21:06:37.228Z,88.95
2023-03-23T21:09:06.186Z,90.21
2023-03-23T21:11:35.286Z,90.00
2023-03-23T21:14:03.864Z,90.17
2023-03-23T21:16:32.025Z,90.64
2023-03-23T21:19:00.299Z,91.00
2023-03-23T21:21:29.933Z,91.11
2023-03-23T21:23:57.988Z,91.49
2023-03-23T21:26:28.508Z,91.82
2023-03-23T21:28:59.999Z,93.48
2023-03-23T21:31:30.727Z,95.58
2023-03-23T21:33:58.982Z,95.61
2023-03-23T21:36:27.996Z,95.81
2023-03-23T21:38:57.971Z,97.47
2023-03-23T21:41:27.020Z,97.07
2023-03-23T21:43:54.990Z,97.66
2023-03-23T21:46:24.440Z,97.87
2023-03-23T21:48:52.773Z,98.26
2023-03-23T21:51:24.417Z,99.02
2023-03-23T21:53:54.116Z,98.39
2023-03-23T21:56:28.261Z,99.03
2023-03-23T21:58:56.573Z,99.66
2023-03-23T22:01:25.333Z,99.74
2023-03-23T22:03:53.211Z,98.79
2023-03-23T22:06:26.687Z,97.89
2023-03-23T22:08:55.326Z,98.20
2023-03-23T22:11:28.213Z,97.96
2023-03-23T22:13:58.219Z,97.92
2023-03-23T22:16:27.178Z,98.84
2023-03-23T22:18:56.968Z,98.54
2023-03-23T22:21:27.769Z,99.50
2023-03-23T22:23:57.876Z,100.00
2023-03-23T22:26:28.452Z,100.00
2023-03-23T22:28:56.421Z,100.00
2023-03-23T22:31:26.673Z,100.00
2023-03-23T22:33:56.629Z,100.00
2023-03-23T22:36:26.427Z,99.85
2023-03-23T22:38:55.037Z,100.00
2023-03-23T22:41:25.191Z,100.00
2023-03-23T22:43:54.766Z,100.00
2023-03-23T22:46:22.967Z,99.00
2023-03-23T22:48:50.981Z,100.00
2023-03-23T22:51:19.914Z,100.00
2023-03-23T22:53:48.364Z,100.00
2023-03-23T22:56:16.687Z,98.58
2023-03-23T22:58:44.793Z,97.18
2023-03-23T23:01:16.345Z,97.20
2023-03-23T23:03:44.418Z,97.28
2023-03-23T23:06:13.542Z,95.19
2023-03-23T23:08:42.820Z,93.93
2023-03-23T23:11:13.655Z,94.26
2023-03-23T23:13:41.944Z,94.24
2023-03-23T23:16:11.420Z,94.00
2023-03-23T23:18:41.343Z,94.02
2023-03-23T23:21:11.705Z,93.72
2023-03-23T23:23:40.198Z,92.32
2023-03-23T23:26:08.597Z,92.15
2023-03-23T23:28:37.332Z,92.62
2023-03-23T23:31:06.329Z,93.33
2023-03-23T23:33:34.482Z,93.17
2023-03-23T23:36:04.063Z,92.14
2023-03-23T23:38:31.984Z,92.41
2023-03-23T23:40:59.941Z,92.25
2023-03-23T23:43:27.852Z,92.95
2023-03-23T23:45:55.783Z,92.99
2023-03-23T23:48:23.785Z,93.46
2023-03-23T23:50:51.890Z,93.25
2023-03-23T23:53:22.933Z,92.89
2023-03-23T23:55:51.062Z,93.56
2023-03-23T23:58:19.326Z,93.71
